sensor_id;sensor_type;location;lat;lon;timestamp;temperature;humidity
33508;DHT22;25568;37.410;-122.096;2022-10-01T00:02:02;23.00;65.10
33508;DHT22;25568;37.410;-122.096;2022-10-01T00:04:31;23.00;65.10
33508;DHT22;25568;37.410;-122.096;2022-10-01T00:07:01;23.00;65.10
33508;DHT22;25568;37.410;-122.096;2022-10-01T00:09:34;23.10;65.10
33508;DHT22;25568;37.410;-122.096;2022-10-01T00:12:04;23.10;65.00
33508;DHT22;25568;37.410;-122.096;2022-10-01T00:14:33;23.10;65.50
33508;DHT22;25568;37.410;-122.096;2022-10-01T00:17:04;23.20;66.00
33508;DHT22;25568;37.410;-122.096;2022-10-01T00:19:32;23.20;66.30
33508;DHT22;25568;37.410;-122.096;2022-10-01T00:22:03;23.20;66.30
33508;DHT22;25568;37.410;-122.096;2022-10-01T00:24:31;23.20;66.30
33508;DHT22;25568;37.410;-122.096;2022-10-01T00:27:02;23.20;66.30
33508;DHT22;25568;37.410;-122.096;2022-10-01T00:29:30;23.20;66.20
33508;DHT22;25568;37.410;-122.096;2022-10-01T00:31:59;23.30;66.10
33508;DHT22;25568;37.410;-122.096;2022-10-01T00:34:28;23.30;65.90
33508;DHT22;25568;37.410;-122.096;2022-10-01T00:36:57;23.30;65.80
33508;DHT22;25568;37.410;-122.096;2022-10-01T00:39:27;23.30;65.50
33508;DHT22;25568;37.410;-122.096;2022-10-01T00:41:56;23.30;65.20
33508;DHT22;25568;37.410;-122.096;2022-10-01T00:44:31;23.30;65.10
33508;DHT22;25568;37.410;-122.096;2022-10-01T00:47:05;23.30;65.40
33508;DHT22;25568;37.410;-122.096;2022-10-01T00:49:37;23.30;65.40
33508;DHT22;25568;37.410;-122.096;2022-10-01T00:52:09;23.30;65.30
33508;DHT22;25568;37.410;-122.096;2022-10-01T00:54:45;23.30;65.10
33508;DHT22;25568;37.410;-122.096;2022-10-01T00:57:17;23.40;65.00
33508;DHT22;25568;37.410;-122.096;2022-10-01T00:59:49;23.30;64.80
33508;DHT22;25568;37.410;-122.096;2022-10-01T01:02:19;23.40;64.60
33508;DHT22;25568;37.410;-122.096;2022-10-01T01:04:48;23.40;64.50
33508;DHT22;25568;37.410;-122.096;2022-10-01T01:07:16;23.40;64.30
33508;DHT22;25568;37.410;-122.096;2022-10-01T01:09:48;23.40;64.30
33508;DHT22;25568;37.410;-122.096;2022-10-01T01:12:35;23.40;64.30
33508;DHT22;25568;37.410;-122.096;2022-10-01T01:15:13;23.40;64.30
33508;DHT22;25568;37.410;-122.096;2022-10-01T01:17:50;23.40;64.50
33508;DHT22;25568;37.410;-122.096;2022-10-01T01:20:36;23.40;65.00
33508;DHT22;25568;37.410;-122.096;2022-10-01T01:26:17;23.40;65.30
33508;DHT22;25568;37.410;-122.096;2022-10-01T01:28:50;23.40;65.50
33508;DHT22;25568;37.410;-122.096;2022-10-01T01:31:25;23.40;65.60
33508;DHT22;25568;37.410;-122.096;2022-10-01T01:33:57;23.40;65.80
33508;DHT22;25568;37.410;-122.096;2022-10-01T01:36:29;23.50;66.00
33508;DHT22;25568;37.410;-122.096;2022-10-01T01:39:02;23.40;65.90
33508;DHT22;25568;37.410;-122.096;2022-10-01T01:41:34;23.40;65.80
33508;DHT22;25568;37.410;-122.096;2022-10-01T01:44:08;23.40;66.00
33508;DHT22;25568;37.410;-122.096;2022-10-01T01:46:41;23.40;66.30
33508;DHT22;25568;37.410;-122.096;2022-10-01T01:49:11;23.40;66.30
33508;DHT22;25568;37.410;-122.096;2022-10-01T01:51:48;23.40;66.30
33508;DHT22;25568;37.410;-122.096;2022-10-01T01:54:19;23.50;66.30
33508;DHT22;25568;37.410;-122.096;2022-10-01T01:56:49;23.50;66.20
33508;DHT22;25568;37.410;-122.096;2022-10-01T01:59:20;23.40;66.10
33508;DHT22;25568;37.410;-122.096;2022-10-01T02:01:48;23.40;66.10
33508;DHT22;25568;37.410;-122.096;2022-10-01T02:04:20;23.40;66.30
33508;DHT22;25568;37.410;-122.096;2022-10-01T02:09:59;23.40;66.40
33508;DHT22;25568;37.410;-122.096;2022-10-01T02:12:42;23.40;66.60
33508;DHT22;25568;37.410;-122.096;2022-10-01T02:15:21;23.50;66.90
33508;DHT22;25568;37.410;-122.096;2022-10-01T02:17:57;23.50;67.10
33508;DHT22;25568;37.410;-122.096;2022-10-01T02:20:30;23.50;67.30
33508;DHT22;25568;37.410;-122.096;2022-10-01T02:23:04;23.50;67.40
33508;DHT22;25568;37.410;-122.096;2022-10-01T02:25:41;23.50;67.60
33508;DHT22;25568;37.410;-122.096;2022-10-01T02:28:12;23.50;67.80
33508;DHT22;25568;37.410;-122.096;2022-10-01T02:30:45;23.50;67.90
33508;DHT22;25568;37.410;-122.096;2022-10-01T02:33:17;23.50;68.10
33508;DHT22;25568;37.410;-122.096;2022-10-01T02:35:49;23.50;68.30
33508;DHT22;25568;37.410;-122.096;2022-10-01T02:38:20;23.50;68.50
33508;DHT22;25568;37.410;-122.096;2022-10-01T02:40:54;23.50;68.60
33508;DHT22;25568;37.410;-122.096;2022-10-01T02:43:30;23.50;68.80
33508;DHT22;25568;37.410;-122.096;2022-10-01T02:46:08;23.50;69.70
33508;DHT22;25568;37.410;-122.096;2022-10-01T02:48:40;23.60;69.70
33508;DHT22;25568;37.410;-122.096;2022-10-01T02:51:19;23.70;69.60
33508;DHT22;25568;37.410;-122.096;2022-10-01T02:53:55;23.70;69.40
33508;DHT22;25568;37.410;-122.096;2022-10-01T02:56:25;23.70;69.30
33508;DHT22;25568;37.410;-122.096;2022-10-01T02:59:17;23.70;69.40
33508;DHT22;25568;37.410;-122.096;2022-10-01T03:01:49;23.80;69.70
33508;DHT22;25568;37.410;-122.096;2022-10-01T03:04:18;23.80;69.70
33508;DHT22;25568;37.410;-122.096;2022-10-01T03:06:46;23.80;69.90
33508;DHT22;25568;37.410;-122.096;2022-10-01T03:09:15;23.80;69.90
33508;DHT22;25568;37.410;-122.096;2022-10-01T03:11:44;23.80;70.00
33508;DHT22;25568;37.410;-122.096;2022-10-01T03:14:12;23.80;70.10
33508;DHT22;25568;37.410;-122.096;2022-10-01T03:16:41;23.80;70.20
33508;DHT22;25568;37.410;-122.096;2022-10-01T03:19:11;23.70;70.20
33508;DHT22;25568;37.410;-122.096;2022-10-01T03:21:40;23.70;70.20
33508;DHT22;25568;37.410;-122.096;2022-10-01T03:24:09;23.70;70.20
33508;DHT22;25568;37.410;-122.096;2022-10-01T03:26:38;23.80;70.20
33508;DHT22;25568;37.410;-122.096;2022-10-01T03:29:06;23.70;70.20
33508;DHT22;25568;37.410;-122.096;2022-10-01T03:31:35;23.70;70.20
33508;DHT22;25568;37.410;-122.096;2022-10-01T03:34:04;23.70;70.20
33508;DHT22;25568;37.410;-122.096;2022-10-01T03:36:34;23.70;70.40
33508;DHT22;25568;37.410;-122.096;2022-10-01T03:39:03;23.70;70.40
33508;DHT22;25568;37.410;-122.096;2022-10-01T03:41:32;23.70;70.50
33508;DHT22;25568;37.410;-122.096;2022-10-01T03:44:01;23.70;70.50
33508;DHT22;25568;37.410;-122.096;2022-10-01T03:46:29;23.70;70.50
33508;DHT22;25568;37.410;-122.096;2022-10-01T03:48:58;23.70;70.70
33508;DHT22;25568;37.410;-122.096;2022-10-01T03:51:27;23.70;70.80
33508;DHT22;25568;37.410;-122.096;2022-10-01T03:53:57;23.70;70.90
33508;DHT22;25568;37.410;-122.096;2022-10-01T03:56:26;23.70;71.00
33508;DHT22;25568;37.410;-122.096;2022-10-01T03:58:55;23.60;71.00
33508;DHT22;25568;37.410;-122.096;2022-10-01T04:01:24;23.70;71.20
33508;DHT22;25568;37.410;-122.096;2022-10-01T04:03:53;23.60;71.20
33508;DHT22;25568;37.410;-122.096;2022-10-01T04:06:21;23.60;71.10
33508;DHT22;25568;37.410;-122.096;2022-10-01T04:08:50;23.60;71.20
33508;DHT22;25568;37.410;-122.096;2022-10-01T04:11:20;23.60;71.20
33508;DHT22;25568;37.410;-122.096;2022-10-01T04:13:49;23.60;71.20
33508;DHT22;25568;37.410;-122.096;2022-10-01T04:16:18;23.60;71.20
33508;DHT22;25568;37.410;-122.096;2022-10-01T04:18:47;23.60;71.20
33508;DHT22;25568;37.410;-122.096;2022-10-01T04:21:15;23.60;71.00
33508;DHT22;25568;37.410;-122.096;2022-10-01T04:23:44;23.50;70.90
33508;DHT22;25568;37.410;-122.096;2022-10-01T04:26:13;23.50;70.90
33508;DHT22;25568;37.410;-122.096;2022-10-01T04:28:45;23.50;70.90
33508;DHT22;25568;37.410;-122.096;2022-10-01T04:31:14;23.50;70.90
33508;DHT22;25568;37.410;-122.096;2022-10-01T04:33:52;23.50;70.70
33508;DHT22;25568;37.410;-122.096;2022-10-01T04:36:22;23.50;70.90
33508;DHT22;25568;37.410;-122.096;2022-10-01T04:38:52;23.50;71.00
33508;DHT22;25568;37.410;-122.096;2022-10-01T04:41:21;23.50;71.30
33508;DHT22;25568;37.410;-122.096;2022-10-01T04:43:52;23.60;71.70
33508;DHT22;25568;37.410;-122.096;2022-10-01T04:46:21;23.70;71.90
33508;DHT22;25568;37.410;-122.096;2022-10-01T04:48:50;23.70;72.30
33508;DHT22;25568;37.410;-122.096;2022-10-01T04:51:18;23.70;72.60
33508;DHT22;25568;37.410;-122.096;2022-10-01T04:53:47;23.70;73.00
33508;DHT22;25568;37.410;-122.096;2022-10-01T04:56:16;23.60;73.10
33508;DHT22;25568;37.410;-122.096;2022-10-01T04:58:44;23.60;73.20
33508;DHT22;25568;37.410;-122.096;2022-10-01T05:01:15;23.60;73.10
33508;DHT22;25568;37.410;-122.096;2022-10-01T05:03:44;23.50;72.80
33508;DHT22;25568;37.410;-122.096;2022-10-01T05:06:12;23.50;72.70
33508;DHT22;25568;37.410;-122.096;2022-10-01T05:08:41;23.50;72.50
33508;DHT22;25568;37.410;-122.096;2022-10-01T05:11:10;23.50;72.50
33508;DHT22;25568;37.410;-122.096;2022-10-01T05:13:39;23.50;72.50
33508;DHT22;25568;37.410;-122.096;2022-10-01T05:16:07;23.50;72.50
33508;DHT22;25568;37.410;-122.096;2022-10-01T05:18:38;23.50;72.70
33508;DHT22;25568;37.410;-122.096;2022-10-01T05:21:08;23.50;73.50
33508;DHT22;25568;37.410;-122.096;2022-10-01T05:23:37;23.40;72.70
33508;DHT22;25568;37.410;-122.096;2022-10-01T05:26:06;23.40;72.70
33508;DHT22;25568;37.410;-122.096;2022-10-01T05:28:36;23.40;70.70
33508;DHT22;25568;37.410;-122.096;2022-10-01T05:31:10;23.20;66.40
33508;DHT22;25568;37.410;-122.096;2022-10-01T05:33:41;23.10;65.70
33508;DHT22;25568;37.410;-122.096;2022-10-01T05:36:09;23.10;64.80
33508;DHT22;25568;37.410;-122.096;2022-10-01T05:38:38;23.00;64.20
33508;DHT22;25568;37.410;-122.096;2022-10-01T05:41:07;22.90;63.30
33508;DHT22;25568;37.410;-122.096;2022-10-01T05:43:36;22.90;63.30
33508;DHT22;25568;37.410;-122.096;2022-10-01T05:46:05;22.80;62.90
33508;DHT22;25568;37.410;-122.096;2022-10-01T05:48:35;22.70;62.70
33508;DHT22;25568;37.410;-122.096;2022-10-01T05:51:06;22.70;62.40
33508;DHT22;25568;37.410;-122.096;2022-10-01T05:53:35;22.70;62.20
33508;DHT22;25568;37.410;-122.096;2022-10-01T05:56:04;22.60;61.90
33508;DHT22;25568;37.410;-122.096;2022-10-01T05:58:33;22.60;61.90
33508;DHT22;25568;37.410;-122.096;2022-10-01T06:01:02;22.60;62.00
33508;DHT22;25568;37.410;-122.096;2022-10-01T06:03:31;22.50;61.80
33508;DHT22;25568;37.410;-122.096;2022-10-01T06:06:00;22.50;62.20
33508;DHT22;25568;37.410;-122.096;2022-10-01T06:08:33;22.50;62.00
33508;DHT22;25568;37.410;-122.096;2022-10-01T06:11:03;22.40;61.00
33508;DHT22;25568;37.410;-122.096;2022-10-01T06:13:34;22.40;60.80
33508;DHT22;25568;37.410;-122.096;2022-10-01T06:16:02;22.40;60.70
33508;DHT22;25568;37.410;-122.096;2022-10-01T06:18:31;22.30;60.60
33508;DHT22;25568;37.410;-122.096;2022-10-01T06:21:00;22.30;60.50
33508;DHT22;25568;37.410;-122.096;2022-10-01T06:23:29;22.20;60.40
33508;DHT22;25568;37.410;-122.096;2022-10-01T06:26:01;22.20;60.30
33508;DHT22;25568;37.410;-122.096;2022-10-01T06:28:31;22.10;60.20
33508;DHT22;25568;37.410;-122.096;2022-10-01T06:31:01;22.10;60.20
33508;DHT22;25568;37.410;-122.096;2022-10-01T06:33:29;22.10;60.30
33508;DHT22;25568;37.410;-122.096;2022-10-01T06:35:58;22.10;60.20
33508;DHT22;25568;37.410;-122.096;2022-10-01T06:38:27;22.00;60.00
33508;DHT22;25568;37.410;-122.096;2022-10-01T06:40:57;22.00;60.00
33508;DHT22;25568;37.410;-122.096;2022-10-01T06:43:29;21.90;60.00
33508;DHT22;25568;37.410;-122.096;2022-10-01T06:46:00;21.90;59.90
33508;DHT22;25568;37.410;-122.096;2022-10-01T06:48:30;21.90;59.90
33508;DHT22;25568;37.410;-122.096;2022-10-01T06:50:59;21.80;59.80
33508;DHT22;25568;37.410;-122.096;2022-10-01T06:53:28;21.80;59.70
33508;DHT22;25568;37.410;-122.096;2022-10-01T06:55:56;21.80;59.60
33508;DHT22;25568;37.410;-122.096;2022-10-01T06:58:24;21.70;59.60
33508;DHT22;25568;37.410;-122.096;2022-10-01T07:00:59;21.70;59.70
33508;DHT22;25568;37.410;-122.096;2022-10-01T07:03:29;21.60;59.70
33508;DHT22;25568;37.410;-122.096;2022-10-01T07:06:02;21.60;59.70
33508;DHT22;25568;37.410;-122.096;2022-10-01T07:08:31;21.50;59.90
33508;DHT22;25568;37.410;-122.096;2022-10-01T07:11:00;21.40;60.00
33508;DHT22;25568;37.410;-122.096;2022-10-01T07:13:30;21.40;60.10
33508;DHT22;25568;37.410;-122.096;2022-10-01T07:16:02;21.30;60.30
33508;DHT22;25568;37.410;-122.096;2022-10-01T07:18:31;21.30;60.30
33508;DHT22;25568;37.410;-122.096;2022-10-01T07:20:59;21.20;60.40
33508;DHT22;25568;37.410;-122.096;2022-10-01T07:23:28;21.20;60.40
33508;DHT22;25568;37.410;-122.096;2022-10-01T07:25:57;21.20;60.40
33508;DHT22;25568;37.410;-122.096;2022-10-01T07:28:26;21.10;59.70
33508;DHT22;25568;37.410;-122.096;2022-10-01T07:31:00;21.10;59.30
33508;DHT22;25568;37.410;-122.096;2022-10-01T07:33:32;21.10;59.00
33508;DHT22;25568;37.410;-122.096;2022-10-01T07:36:01;21.00;58.60
33508;DHT22;25568;37.410;-122.096;2022-10-01T07:38:30;21.00;58.90
33508;DHT22;25568;37.410;-122.096;2022-10-01T07:41:00;20.90;61.10
33508;DHT22;25568;37.410;-122.096;2022-10-01T07:43:30;21.00;63.60
33508;DHT22;25568;37.410;-122.096;2022-10-01T07:46:01;21.00;65.30
33508;DHT22;25568;37.410;-122.096;2022-10-01T07:48:31;21.00;67.10
33508;DHT22;25568;37.410;-122.096;2022-10-01T07:50:59;21.00;68.40
33508;DHT22;25568;37.410;-122.096;2022-10-01T07:53:28;21.00;69.40
33508;DHT22;25568;37.410;-122.096;2022-10-01T07:56:00;21.10;70.30
33508;DHT22;25568;37.410;-122.096;2022-10-01T07:58:29;21.10;71.30
33508;DHT22;25568;37.410;-122.096;2022-10-01T08:00:57;21.10;71.70
33508;DHT22;25568;37.410;-122.096;2022-10-01T08:03:31;21.10;72.70
33508;DHT22;25568;37.410;-122.096;2022-10-01T08:06:00;21.10;73.10
33508;DHT22;25568;37.410;-122.096;2022-10-01T08:08:30;21.10;74.10
33508;DHT22;25568;37.410;-122.096;2022-10-01T08:11:01;21.10;74.90
33508;DHT22;25568;37.410;-122.096;2022-10-01T08:13:30;21.10;75.60
33508;DHT22;25568;37.410;-122.096;2022-10-01T08:16:02;21.20;76.60
33508;DHT22;25568;37.410;-122.096;2022-10-01T08:18:33;21.20;77.30
33508;DHT22;25568;37.410;-122.096;2022-10-01T08:21:03;21.20;77.60
33508;DHT22;25568;37.410;-122.096;2022-10-01T08:23:31;21.20;78.00
33508;DHT22;25568;37.410;-122.096;2022-10-01T08:26:02;21.20;79.00
33508;DHT22;25568;37.410;-122.096;2022-10-01T08:28:31;21.20;79.70
33508;DHT22;25568;37.410;-122.096;2022-10-01T08:31:03;21.20;80.20
33508;DHT22;25568;37.410;-122.096;2022-10-01T08:33:36;21.20;80.50
33508;DHT22;25568;37.410;-122.096;2022-10-01T08:36:06;21.20;80.20
33508;DHT22;25568;37.410;-122.096;2022-10-01T08:38:35;21.20;80.80
33508;DHT22;25568;37.410;-122.096;2022-10-01T08:41:20;21.20;81.30
33508;DHT22;25568;37.410;-122.096;2022-10-01T08:43:55;21.20;80.90
33508;DHT22;25568;37.410;-122.096;2022-10-01T08:46:28;21.20;81.10
33508;DHT22;25568;37.410;-122.096;2022-10-01T08:49:07;21.20;81.00
33508;DHT22;25568;37.410;-122.096;2022-10-01T08:51:45;21.30;81.30
33508;DHT22;25568;37.410;-122.096;2022-10-01T08:54:23;21.30;81.90
33508;DHT22;25568;37.410;-122.096;2022-10-01T08:56:57;21.30;82.00
33508;DHT22;25568;37.410;-122.096;2022-10-01T08:59:37;21.30;82.50
33508;DHT22;25568;37.410;-122.096;2022-10-01T09:02:19;21.30;82.20
33508;DHT22;25568;37.410;-122.096;2022-10-01T09:04:51;21.30;82.40
33508;DHT22;25568;37.410;-122.096;2022-10-01T09:07:30;21.30;82.20
33508;DHT22;25568;37.410;-122.096;2022-10-01T09:10:16;21.30;82.30
33508;DHT22;25568;37.410;-122.096;2022-10-01T09:12:59;21.30;82.20
33508;DHT22;25568;37.410;-122.096;2022-10-01T09:15:36;21.30;82.50
33508;DHT22;25568;37.410;-122.096;2022-10-01T09:18:16;21.30;82.70
33508;DHT22;25568;37.410;-122.096;2022-10-01T09:20:52;21.30;83.00
33508;DHT22;25568;37.410;-122.096;2022-10-01T09:23:26;21.30;83.10
33508;DHT22;25568;37.410;-122.096;2022-10-01T09:25:56;21.30;83.10
33508;DHT22;25568;37.410;-122.096;2022-10-01T09:28:28;21.30;83.30
33508;DHT22;25568;37.410;-122.096;2022-10-01T09:30:59;21.30;83.60
33508;DHT22;25568;37.410;-122.096;2022-10-01T09:33:32;21.30;83.70
33508;DHT22;25568;37.410;-122.096;2022-10-01T09:36:13;21.30;83.60
33508;DHT22;25568;37.410;-122.096;2022-10-01T09:38:43;21.40;84.10
33508;DHT22;25568;37.410;-122.096;2022-10-01T09:41:12;21.30;84.00
33508;DHT22;25568;37.410;-122.096;2022-10-01T09:43:43;21.30;84.10
33508;DHT22;25568;37.410;-122.096;2022-10-01T09:46:15;21.40;84.30
33508;DHT22;25568;37.410;-122.096;2022-10-01T09:48:54;21.30;84.30
33508;DHT22;25568;37.410;-122.096;2022-10-01T09:51:29;21.30;84.50
33508;DHT22;25568;37.410;-122.096;2022-10-01T09:54:03;21.30;84.50
33508;DHT22;25568;37.410;-122.096;2022-10-01T09:56:37;21.30;84.60
33508;DHT22;25568;37.410;-122.096;2022-10-01T09:59:11;21.30;84.60
33508;DHT22;25568;37.410;-122.096;2022-10-01T10:01:44;21.40;84.80
33508;DHT22;25568;37.410;-122.096;2022-10-01T10:04:18;21.30;84.80
33508;DHT22;25568;37.410;-122.096;2022-10-01T10:06:51;21.30;84.80
33508;DHT22;25568;37.410;-122.096;2022-10-01T10:09:30;21.40;85.00
33508;DHT22;25568;37.410;-122.096;2022-10-01T10:12:00;21.40;85.10
33508;DHT22;25568;37.410;-122.096;2022-10-01T10:14:32;21.40;85.30
33508;DHT22;25568;37.410;-122.096;2022-10-01T10:17:05;21.40;85.40
33508;DHT22;25568;37.410;-122.096;2022-10-01T10:19:36;21.40;85.40
33508;DHT22;25568;37.410;-122.096;2022-10-01T10:22:20;21.40;85.40
33508;DHT22;25568;37.410;-122.096;2022-10-01T10:24:51;21.40;85.40
33508;DHT22;25568;37.410;-122.096;2022-10-01T10:27:22;21.40;85.50
33508;DHT22;25568;37.410;-122.096;2022-10-01T10:30:04;21.30;85.40
33508;DHT22;25568;37.410;-122.096;2022-10-01T10:32:34;21.40;85.40
33508;DHT22;25568;37.410;-122.096;2022-10-01T10:35:07;21.40;85.60
33508;DHT22;25568;37.410;-122.096;2022-10-01T10:37:44;21.30;85.40
33508;DHT22;25568;37.410;-122.096;2022-10-01T10:40:17;21.40;85.50
33508;DHT22;25568;37.410;-122.096;2022-10-01T10:42:47;21.40;85.80
33508;DHT22;25568;37.410;-122.096;2022-10-01T10:45:20;21.40;86.10
33508;DHT22;25568;37.410;-122.096;2022-10-01T10:47:52;21.40;86.20
33508;DHT22;25568;37.410;-122.096;2022-10-01T10:50:29;21.40;87.00
33508;DHT22;25568;37.410;-122.096;2022-10-01T10:53:12;21.40;86.30
33508;DHT22;25568;37.410;-122.096;2022-10-01T10:55:55;21.40;86.30
33508;DHT22;25568;37.410;-122.096;2022-10-01T10:58:27;21.40;86.40
33508;DHT22;25568;37.410;-122.096;2022-10-01T11:00:58;21.40;86.40
33508;DHT22;25568;37.410;-122.096;2022-10-01T11:03:29;21.40;86.40
33508;DHT22;25568;37.410;-122.096;2022-10-01T11:06:08;21.40;86.60
33508;DHT22;25568;37.410;-122.096;2022-10-01T11:08:39;21.40;86.80
33508;DHT22;25568;37.410;-122.096;2022-10-01T11:11:18;21.40;86.90
33508;DHT22;25568;37.410;-122.096;2022-10-01T11:14:09;21.40;86.80
33508;DHT22;25568;37.410;-122.096;2022-10-01T11:17:11;21.40;86.90
33508;DHT22;25568;37.410;-122.096;2022-10-01T11:20:02;21.40;86.90
33508;DHT22;25568;37.410;-122.096;2022-10-01T11:22:45;21.40;87.10
33508;DHT22;25568;37.410;-122.096;2022-10-01T11:25:36;21.40;87.20
33508;DHT22;25568;37.410;-122.096;2022-10-01T11:28:22;21.40;87.30
33508;DHT22;25568;37.410;-122.096;2022-10-01T11:30:57;21.40;87.40
33508;DHT22;25568;37.410;-122.096;2022-10-01T11:33:33;21.40;87.40
33508;DHT22;25568;37.410;-122.096;2022-10-01T11:36:17;21.40;87.50
33508;DHT22;25568;37.410;-122.096;2022-10-01T11:38:55;21.40;87.40
33508;DHT22;25568;37.410;-122.096;2022-10-01T11:41:35;21.40;87.40
33508;DHT22;25568;37.410;-122.096;2022-10-01T11:44:11;21.40;87.50
33508;DHT22;25568;37.410;-122.096;2022-10-01T11:46:49;21.40;87.40
33508;DHT22;25568;37.410;-122.096;2022-10-01T11:49:39;21.40;87.60
33508;DHT22;25568;37.410;-122.096;2022-10-01T11:52:21;21.50;87.60
33508;DHT22;25568;37.410;-122.096;2022-10-01T11:55:03;21.50;87.70
33508;DHT22;25568;37.410;-122.096;2022-10-01T11:57:53;21.50;88.20
33508;DHT22;25568;37.410;-122.096;2022-10-01T12:00:51;21.40;87.50
33508;DHT22;25568;37.410;-122.096;2022-10-01T12:03:26;21.40;87.60
33508;DHT22;25568;37.410;-122.096;2022-10-01T12:05:56;21.40;87.50
33508;DHT22;25568;37.410;-122.096;2022-10-01T12:08:28;21.40;87.40
33508;DHT22;25568;37.410;-122.096;2022-10-01T12:11:07;21.40;87.30
33508;DHT22;25568;37.410;-122.096;2022-10-01T12:13:43;21.40;87.30
33508;DHT22;25568;37.410;-122.096;2022-10-01T12:16:26;21.40;87.30
33508;DHT22;25568;37.410;-122.096;2022-10-01T12:18:59;21.40;87.20
33508;DHT22;25568;37.410;-122.096;2022-10-01T12:21:37;21.40;87.30
33508;DHT22;25568;37.410;-122.096;2022-10-01T12:24:12;21.40;87.20
33508;DHT22;25568;37.410;-122.096;2022-10-01T12:26:50;21.40;87.10
33508;DHT22;25568;37.410;-122.096;2022-10-01T12:29:26;21.40;87.10
33508;DHT22;25568;37.410;-122.096;2022-10-01T12:32:02;21.40;87.90
33508;DHT22;25568;37.410;-122.096;2022-10-01T12:34:40;21.40;87.10
33508;DHT22;25568;37.410;-122.096;2022-10-01T12:37:20;21.40;87.00
33508;DHT22;25568;37.410;-122.096;2022-10-01T12:40:08;21.40;87.20
33508;DHT22;25568;37.410;-122.096;2022-10-01T12:45:52;21.40;87.60
33508;DHT22;25568;37.410;-122.096;2022-10-01T12:48:29;21.40;87.60
33508;DHT22;25568;37.410;-122.096;2022-10-01T12:51:14;21.40;87.60
33508;DHT22;25568;37.410;-122.096;2022-10-01T12:53:56;21.40;87.60
33508;DHT22;25568;37.410;-122.096;2022-10-01T12:56:31;21.40;87.40
33508;DHT22;25568;37.410;-122.096;2022-10-01T12:59:14;21.40;87.40
33508;DHT22;25568;37.410;-122.096;2022-10-01T13:01:59;21.40;87.60
33508;DHT22;25568;37.410;-122.096;2022-10-01T13:04:47;21.40;87.50
33508;DHT22;25568;37.410;-122.096;2022-10-01T13:07:43;21.50;87.40
33508;DHT22;25568;37.410;-122.096;2022-10-01T13:10:33;21.40;87.40
33508;DHT22;25568;37.410;-122.096;2022-10-01T13:13:12;21.40;87.30
33508;DHT22;25568;37.410;-122.096;2022-10-01T13:15:43;21.40;87.30
33508;DHT22;25568;37.410;-122.096;2022-10-01T13:18:26;21.40;87.20
33508;DHT22;25568;37.410;-122.096;2022-10-01T13:21:05;21.40;87.20
33508;DHT22;25568;37.410;-122.096;2022-10-01T13:23:42;21.40;87.30
33508;DHT22;25568;37.410;-122.096;2022-10-01T13:26:17;21.40;87.20
33508;DHT22;25568;37.410;-122.096;2022-10-01T13:29:13;21.40;87.20
33508;DHT22;25568;37.410;-122.096;2022-10-01T13:31:56;21.40;87.10
33508;DHT22;25568;37.410;-122.096;2022-10-01T13:34:37;21.40;87.10
33508;DHT22;25568;37.410;-122.096;2022-10-01T13:37:11;21.40;86.90
33508;DHT22;25568;37.410;-122.096;2022-10-01T13:39:40;21.40;86.90
33508;DHT22;25568;37.410;-122.096;2022-10-01T13:42:22;21.40;86.90
33508;DHT22;25568;37.410;-122.096;2022-10-01T13:44:53;21.40;86.80
33508;DHT22;25568;37.410;-122.096;2022-10-01T13:47:23;21.40;86.80
33508;DHT22;25568;37.410;-122.096;2022-10-01T13:49:59;21.40;86.90
33508;DHT22;25568;37.410;-122.096;2022-10-01T13:52:31;21.40;86.90
33508;DHT22;25568;37.410;-122.096;2022-10-01T13:55:01;21.40;86.90
33508;DHT22;25568;37.410;-122.096;2022-10-01T13:57:32;21.40;86.90
33508;DHT22;25568;37.410;-122.096;2022-10-01T14:00:20;21.40;87.10
33508;DHT22;25568;37.410;-122.096;2022-10-01T14:03:02;21.40;87.10
33508;DHT22;25568;37.410;-122.096;2022-10-01T14:05:38;21.40;87.10
33508;DHT22;25568;37.410;-122.096;2022-10-01T14:08:16;21.40;87.10
33508;DHT22;25568;37.410;-122.096;2022-10-01T14:11:03;21.40;87.10
33508;DHT22;25568;37.410;-122.096;2022-10-01T14:13:52;21.40;87.40
33508;DHT22;25568;37.410;-122.096;2022-10-01T14:16:40;21.40;87.40
33508;DHT22;25568;37.410;-122.096;2022-10-01T14:19:15;21.40;87.20
33508;DHT22;25568;37.410;-122.096;2022-10-01T14:21:58;21.40;87.10
33508;DHT22;25568;37.410;-122.096;2022-10-01T14:24:35;21.40;87.10
33508;DHT22;25568;37.410;-122.096;2022-10-01T14:27:12;21.40;87.10
33508;DHT22;25568;37.410;-122.096;2022-10-01T14:29:51;21.40;87.10
33508;DHT22;25568;37.410;-122.096;2022-10-01T14:32:32;21.40;87.10
33508;DHT22;25568;37.410;-122.096;2022-10-01T14:35:24;21.40;87.40
33508;DHT22;25568;37.410;-122.096;2022-10-01T14:38:02;21.50;87.60
33508;DHT22;25568;37.410;-122.096;2022-10-01T14:40:37;21.40;87.60
33508;DHT22;25568;37.410;-122.096;2022-10-01T14:43:17;21.50;87.60
33508;DHT22;25568;37.410;-122.096;2022-10-01T14:45:54;21.40;87.50
33508;DHT22;25568;37.410;-122.096;2022-10-01T14:48:24;21.50;87.70
33508;DHT22;25568;37.410;-122.096;2022-10-01T14:50:55;21.50;87.70
33508;DHT22;25568;37.410;-122.096;2022-10-01T14:53:26;21.50;87.70
33508;DHT22;25568;37.410;-122.096;2022-10-01T14:55:57;21.50;87.70
33508;DHT22;25568;37.410;-122.096;2022-10-01T14:58:30;21.40;87.60
33508;DHT22;25568;37.410;-122.096;2022-10-01T15:01:00;21.50;87.70
33508;DHT22;25568;37.410;-122.096;2022-10-01T15:03:35;21.50;87.60
33508;DHT22;25568;37.410;-122.096;2022-10-01T15:06:11;21.50;87.70
33508;DHT22;25568;37.410;-122.096;2022-10-01T15:08:42;21.50;87.70
33508;DHT22;25568;37.410;-122.096;2022-10-01T15:11:15;21.50;87.70
33508;DHT22;25568;37.410;-122.096;2022-10-01T15:13:45;21.50;87.70
33508;DHT22;25568;37.410;-122.096;2022-10-01T15:16:18;21.50;87.70
33508;DHT22;25568;37.410;-122.096;2022-10-01T15:18:50;21.50;87.80
33508;DHT22;25568;37.410;-122.096;2022-10-01T15:21:23;21.50;87.70
33508;DHT22;25568;37.410;-122.096;2022-10-01T15:23:55;21.50;87.60
33508;DHT22;25568;37.410;-122.096;2022-10-01T15:26:26;21.50;87.50
33508;DHT22;25568;37.410;-122.096;2022-10-01T15:29:01;21.50;87.60
33508;DHT22;25568;37.410;-122.096;2022-10-01T15:31:31;21.50;87.40
33508;DHT22;25568;37.410;-122.096;2022-10-01T15:34:02;21.50;87.30
33508;DHT22;25568;37.410;-122.096;2022-10-01T15:36:32;21.50;87.30